Terminal Aerodrome Forecast
Issued by NWS Austin/San Antonio, TX

Home | Current Version | Previous Version | Text Only | Print | Product List | Glossary On
Versions: 1 2 3 4 5 6 7 8 9 10 11 12 13 14 15 16 17 18 19 20 21
000
FTUS44 KEWX 160800 AAB
TAFAUS
TAF AMD
KAUS 160838Z 1609/1712 03005KT P6SM BKN150 BKN200
     FM161100 03006KT P6SM BKN025
     FM161700 07005KT P6SM BKN035
      TEMPO 1620/1624 VRB20G30KT 5SM TSRA BKN030CB
     FM170900 08005KT P6SM BKN025=

USA.gov is the U.S. government's official web portal to all federal, state and local government web resources and services.